Airfield :
LOGIN :

Register | Disclaimer

   EN    FR    IT 

 










Legend :    VFR   Marginal VFR   IFR   Intensive IFR   Very Intensive IFR
Visi :
Ceiling :
>= 8 km
>= 3000ft
5 to 8 km
1000 to 3000 ft
1500m to 5 km
500 to 1000 ft
800 to 1500m
200 to 500 ft
< 800m
< 200 ft
Symbols :   Thunderstorms  Fog  Heavy snow  Heavy precipitations  Wind > 20 kt
SIGMETs :     Misc.  Thunderstorms  Icing  Turbulence  Mountain Waves  Volcanic Ashes






- Airport Elevation : 364 ft
- IATA code : FRA


EDDF - Frankfurt Int.

CURRENT METAR :
  • 020350Z AUTO 02007KT 9999 FEW019 BKN033 OVC040 04/01 Q1021 NOSIG

EXPIRED METARs :
  • 020320Z AUTO 04008KT 9999 FEW019 BKN027 OVC034 04/01 Q1022 NOSIG
  • 020250Z AUTO 03009KT 9999 OVC028 04/01 Q1022
  • 020220Z AUTO 03010KT 9999 BKN029 OVC040 04/01 Q1022 NOSIG
  • 020150Z AUTO 04010KT 9999 FEW028 BKN038 04/01 Q1022 NOSIG
  • 020120Z AUTO 05010KT 9999 SCT029 BKN045 03/01 Q1022 NOSIG
  • 020050Z AUTO 04010KT 9999 FEW029 BKN044 04/01 Q1022 NOSIG

TAF TAF EDDF
Valid from the 02 at 00:00 until the 03 at 06:00 UTC


012300Z 0200/0306 03008KT 9999 FEW030
BECMG 0200/0202 BKN020
BECMG 0207/0209 BKN012
TEMPO 0207/0210 4000 -RASN BKN005
BECMG 0210/0212 BKN015
TEMPO 0210/0219 BKN010
PROB30
TEMPO 0219/0224 3000 -SNRA BKN004
TEMPO 0300/0306 3000 -SN BKN004



MET'MAP, your aeronautical weather chart ! - Copyright ORBIFLY December 2007 - Disclaimer

ORBIFLY MET'MAP TEAM :

Programming & Development : Alexandra Zaïnal
Original concept : Baudouin d'Aumeries
Technical & hardware support : Manuel Goepfert
Assistance : Marc-Olivier Méhu




SOURCES & CREDITS :

   NOAA